Time;durP1;ratioP1;P1;durP2;ratioP2;P2;SDS_P1;SDS_P2;PMS_P1;PMS_P2;Temp;Humidity;BMP_temperature;BMP_pressure;BME280_temperature;BME280_humidity;BME280_pressure;Samples;Min_cycle;Max_cycle;Signal;HPM_P1;HPM_P2
2023/03/09 00:02:16;;;;;;;1.43;0.93;;;;;;;9.41;60.53;98418.31;5109861;28;20221;-58
2023/03/09 00:04:43;;;;;;;1.07;0.80;;;;;;;9.41;61.16;98405.56;5109863;28;20669;-58
2023/03/09 00:07:10;;;;;;;0.80;0.80;;;;;;;9.41;62.03;98413.22;5109534;28;20232;-61
2023/03/09 00:09:38;;;;;;;1.43;0.63;;;;;;;9.41;61.94;98418.31;5110184;28;20205;-61
2023/03/09 00:12:06;;;;;;;0.87;0.70;;;;;;;9.38;62.42;98416.00;5110016;28;20217;-61
2023/03/09 00:14:32;;;;;;;1.00;0.83;;;;;;;9.38;62.20;98408.38;5110039;28;20205;-58
2023/03/09 00:16:59;;;;;;;1.23;1.00;;;;;;;9.35;62.76;98398.41;5109572;28;20684;-58
2023/03/09 00:19:27;;;;;;;1.70;1.10;;;;;;;9.33;62.66;98390.03;5109743;28;20200;-58
2023/03/09 00:21:55;;;;;;;1.23;0.90;;;;;;;9.35;62.77;98393.28;5109724;28;20189;-62
2023/03/09 00:24:26;;;;;;;1.80;1.40;;;;;;;9.25;63.47;98383.81;5109873;28;20204;-61
2023/03/09 00:26:57;;;;;;;1.60;1.00;;;;;;;9.23;64.14;98389.97;5109403;28;20196;-58
2023/03/09 00:29:25;;;;;;;0.50;0.50;;;;;;;9.21;64.37;98392.63;5109683;28;20669;-57
2023/03/09 00:31:52;;;;;;;1.03;0.93;;;;;;;9.12;64.93;98383.13;5109775;28;20197;-57
2023/03/09 00:34:19;;;;;;;1.80;0.60;;;;;;;9.11;65.04;98386.63;5109949;28;20201;-57
2023/03/09 00:36:47;;;;;;;0.90;0.70;;;;;;;9.05;65.66;98392.19;5109273;28;20670;-57
2023/03/09 00:39:16;;;;;;;0.60;0.53;;;;;;;8.94;66.50;98380.28;5109856;28;20205;-61
2023/03/09 00:41:43;;;;;;;0.60;0.60;;;;;;;8.94;66.57;98387.13;5109340;28;20215;-61
2023/03/09 00:44:13;;;;;;;2.10;1.10;;;;;;;8.93;67.28;98382.94;5109584;28;20193;-61
2023/03/09 00:46:40;;;;;;;0.60;0.60;;;;;;;8.96;67.24;98372.50;5109600;28;20194;-61
2023/03/09 00:49:07;;;;;;;1.70;0.57;;;;;;;8.85;68.00;98375.88;5109386;28;20221;-61
2023/03/09 00:51:36;;;;;;;1.10;0.70;;;;;;;8.78;68.55;98375.53;5109577;28;20201;-61
2023/03/09 00:54:03;;;;;;;1.43;0.80;;;;;;;8.82;68.83;98374.38;5109406;28;20233;-61
2023/03/09 00:56:30;;;;;;;1.50;0.63;;;;;;;8.80;69.21;98373.66;5109183;28;20193;-61
2023/03/09 00:58:58;;;;;;;0.47;0.47;;;;;;;8.78;69.42;98380.63;5109400;28;20218;-61
2023/03/09 01:01:27;;;;;;;0.63;0.50;;;;;;;8.79;69.16;98372.06;5111077;28;20197;-61
2023/03/09 01:03:54;;;;;;;1.03;0.63;;;;;;;8.77;69.77;98368.81;5113088;28;20236;-57
2023/03/09 01:06:23;;;;;;;0.70;0.70;;;;;;;8.77;69.86;98368.81;5113156;28;20193;-57
2023/03/09 01:08:50;;;;;;;0.47;0.47;;;;;;;8.73;70.08;98366.63;5112857;28;20319;-58
2023/03/09 01:11:18;;;;;;;0.83;0.67;;;;;;;8.72;70.57;98365.78;5113095;28;20197;-58
2023/03/09 01:13:46;;;;;;;0.60;0.60;;;;;;;8.68;70.65;98359.31;5112778;27;20417;-57
2023/03/09 01:16:13;;;;;;;0.93;0.60;;;;;;;8.65;70.81;98364.66;5113029;28;20193;-57
2023/03/09 01:18:41;;;;;;;0.60;0.60;;;;;;;8.63;71.36;98356.31;5112665;28;20221;-58
2023/03/09 01:21:08;;;;;;;0.90;0.90;;;;;;;8.66;71.70;98361.16;5112847;28;20220;-61
2023/03/09 01:23:36;;;;;;;0.87;0.70;;;;;;;8.62;72.05;98357.25;5112682;28;20271;-61
2023/03/09 01:26:04;;;;;;;0.43;0.43;;;;;;;8.55;72.46;98353.53;5112456;28;20193;-61
2023/03/09 01:28:31;;;;;;;0.60;0.47;;;;;;;8.53;72.80;98355.41;5112441;28;20718;-61
2023/03/09 01:30:58;;;;;;;1.03;0.77;;;;;;;8.54;72.97;98346.81;5112314;28;20228;-61
2023/03/09 01:33:24;;;;;;;1.33;0.80;;;;;;;8.64;72.95;98352.84;5112512;28;20606;-61
2023/03/09 01:35:53;;;;;;;0.87;0.53;;;;;;;8.56;73.34;98348.31;5112561;28;20203;-57
2023/03/09 01:38:20;;;;;;;0.30;0.30;;;;;;;8.56;73.73;98345.78;5112406;28;20278;-57
2023/03/09 01:40:48;;;;;;;1.17;0.67;;;;;;;8.59;73.51;98334.53;5112431;28;20200;-61
2023/03/09 01:43:31;;;;;;;1.70;0.70;;;;;;;8.57;73.36;98337.19;5112227;28;20217;-61
2023/03/09 01:46:28;;;;;;;0.40;0.40;;;;;;;8.55;74.18;98338.22;5112512;28;20569;-57
2023/03/09 01:48:59;;;;;;;1.13;0.87;;;;;;;8.61;74.25;98333.50;5112216;28;20240;-57
2023/03/09 01:51:33;;;;;;;0.80;0.80;;;;;;;8.80;72.97;98330.34;5112013;28;20553;-58
2023/03/09 01:54:02;;;;;;;0.57;0.57;;;;;;;8.92;72.39;98330.31;5112192;28;20213;-61
2023/03/09 01:56:31;;;;;;;0.73;0.50;;;;;;;8.97;72.74;98328.25;5111874;28;20208;-61
2023/03/09 01:59:01;;;;;;;0.57;0.57;;;;;;;8.93;73.45;98321.75;5111909;28;20217;-61
2023/03/09 02:01:28;;;;;;;1.00;0.57;;;;;;;8.88;73.26;98323.84;5112004;28;20194;-61
2023/03/09 02:04:00;;;;;;;1.10;1.03;;;;;;;8.81;73.46;98314.13;5112041;28;20252;-61
2023/03/09 02:06:28;;;;;;;0.40;0.40;;;;;;;8.75;74.09;98304.41;5111648;28;20209;-61
2023/03/09 02:09:01;;;;;;;1.17;0.70;;;;;;;8.86;73.38;98305.31;5111633;28;20228;-61
2023/03/09 02:11:28;;;;;;;1.10;0.93;;;;;;;9.13;72.53;98298.03;5111519;28;20716;-61
2023/03/09 02:13:55;;;;;;;0.83;0.70;;;;;;;9.17;72.12;98294.34;5110782;28;20213;-61
2023/03/09 02:16:22;;;;;;;1.60;0.70;;;;;;;9.23;72.20;98304.06;5111491;28;20193;-61
2023/03/09 02:18:49;;;;;;;0.30;0.30;;;;;;;9.25;71.85;98299.66;5111794;28;20266;-61
2023/03/09 02:21:34;;;;;;;0.63;0.50;;;;;;;9.24;72.05;98300.56;5111476;28;20197;-57
2023/03/09 02:24:13;;;;;;;0.40;0.40;;;;;;;9.46;70.86;98309.06;5111582;28;20628;-57
2023/03/09 02:26:45;;;;;;;1.30;0.73;;;;;;;9.35;71.52;98306.56;5111636;28;20209;-57
2023/03/09 02:29:14;;;;;;;0.80;0.63;;;;;;;9.37;71.28;98302.97;5111502;28;20225;-57
2023/03/09 02:31:41;;;;;;;0.67;0.53;;;;;;;9.39;70.82;98302.81;5111380;28;20204;-61
2023/03/09 02:34:09;;;;;;;0.83;0.40;;;;;;;9.38;70.83;98311.41;5111520;28;20217;-61
2023/03/09 02:36:36;;;;;;;0.83;0.80;;;;;;;9.51;71.00;98307.78;5111385;28;20205;-57
2023/03/09 02:39:09;;;;;;;1.17;0.80;;;;;;;9.47;71.24;98301.28;5111428;28;20213;-57
2023/03/09 02:41:36;;;;;;;0.50;0.50;;;;;;;9.49;70.73;98304.53;5111067;28;20201;-61
2023/03/09 02:44:03;;;;;;;0.53;0.53;;;;;;;9.57;71.02;98296.25;5110822;28;20214;-61
2023/03/09 02:46:31;;;;;;;1.37;0.83;;;;;;;9.44;71.54;98298.16;5110859;28;20934;-58
2023/03/09 02:48:58;;;;;;;0.27;0.27;;;;;;;9.43;70.63;98299.13;5111167;28;20225;-57
2023/03/09 02:51:25;;;;;;;0.77;0.53;;;;;;;9.44;70.62;98295.63;5110970;28;20204;-57
2023/03/09 02:53:52;;;;;;;0.43;0.43;;;;;;;9.47;71.01;98292.81;5110775;28;20220;-58
2023/03/09 02:56:18;;;;;;;3.50;0.70;;;;;;;9.47;70.58;98292.81;5111098;28;20193;-57
2023/03/09 02:58:45;;;;;;;1.53;0.73;;;;;;;9.49;71.11;98296.06;5110790;28;20593;-61
2023/03/09 03:01:12;;;;;;;0.40;0.40;;;;;;;9.50;70.41;98295.94;5110817;28;20193;-61
2023/03/09 03:03:40;;;;;;;0.60;0.60;;;;;;;9.50;70.40;98293.38;5110932;28;20220;-61
2023/03/09 03:06:08;;;;;;;1.17;0.73;;;;;;;9.52;70.55;98294.06;5110663;28;20193;-57
2023/03/09 03:08:35;;;;;;;0.50;0.50;;;;;;;9.51;70.17;98282.25;5110554;28;20302;-57
2023/03/09 03:11:02;;;;;;;1.17;0.70;;;;;;;9.46;70.82;98291.22;5110907;28;20661;-61
2023/03/09 03:13:29;;;;;;;0.77;0.57;;;;;;;9.44;70.91;98286.22;5110287;28;20645;-61
2023/03/09 03:15:59;;;;;;;0.50;0.50;;;;;;;9.36;71.49;98282.66;5110402;28;20205;-61
2023/03/09 03:18:26;;;;;;;0.93;0.30;;;;;;;9.28;72.05;98285.84;5110195;28;20232;-57
2023/03/09 03:20:54;;;;;;;0.40;0.40;;;;;;;9.26;71.97;98293.59;5110355;28;20673;-57
2023/03/09 03:23:22;;;;;;;0.40;0.40;;;;;;;9.23;72.58;98298.94;5110096;28;20214;-58
2023/03/09 03:25:48;;;;;;;0.57;0.50;;;;;;;9.21;72.41;98297.44;5110114;28;20580;-58
2023/03/09 03:28:16;;;;;;;0.67;0.67;;;;;;;9.23;72.19;98298.94;5110405;28;20233;-58
2023/03/09 03:30:43;;;;;;;0.60;0.60;;;;;;;9.19;72.96;98297.59;5110201;28;20204;-57
2023/03/09 03:33:09;;;;;;;0.43;0.43;;;;;;;9.18;72.89;98293.41;5110203;28;20217;-61
2023/03/09 03:35:36;;;;;;;1.20;0.60;;;;;;;9.14;73.03;98293.78;5110172;28;20201;-61
2023/03/09 03:38:04;;;;;;;1.00;0.63;;;;;;;9.15;72.96;98297.94;5110034;28;20228;-57
2023/03/09 03:40:31;;;;;;;0.50;0.50;;;;;;;9.11;73.95;98294.81;5110565;28;20201;-61
2023/03/09 03:42:58;;;;;;;0.40;0.40;;;;;;;9.11;73.51;98294.81;5109927;28;20217;-57
2023/03/09 03:45:26;;;;;;;0.57;0.57;;;;;;;9.15;73.15;98296.19;5109943;28;20662;-57
2023/03/09 03:47:52;;;;;;;0.93;0.80;;;;;;;9.10;74.42;98298.28;5109870;28;20213;-61
2023/03/09 03:50:19;;;;;;;0.70;0.60;;;;;;;9.18;73.55;98295.94;5109724;28;20237;-61
2023/03/09 03:52:46;;;;;;;0.77;0.60;;;;;;;9.39;72.20;98297.72;5109814;28;20590;-58
2023/03/09 03:55:14;;;;;;;0.60;0.43;;;;;;;9.47;71.43;98296.16;5109923;28;20205;-57
2023/03/09 03:57:41;;;;;;;0.50;0.50;;;;;;;9.56;70.79;98297.19;5110336;28;20217;-61
2023/03/09 04:00:10;;;;;;;0.53;0.50;;;;;;;9.38;71.61;98296.13;5109880;28;20208;-61
2023/03/09 04:02:37;;;;;;;0.30;0.30;;;;;;;9.37;71.52;98307.25;5109662;28;20213;-57
2023/03/09 04:05:05;;;;;;;0.80;0.80;;;;;;;9.36;72.04;98301.31;5109834;28;20213;-57
2023/03/09 04:07:32;;;;;;;0.40;0.40;;;;;;;9.21;72.27;98305.91;5109571;28;20605;-61
2023/03/09 04:09:59;;;;;;;0.83;0.73;;;;;;;9.13;73.04;98308.25;5109736;28;20235;-61
2023/03/09 04:12:27;;;;;;;0.93;0.60;;;;;;;9.18;73.16;98298.50;5109407;28;20302;-57
2023/03/09 04:14:54;;;;;;;0.47;0.47;;;;;;;9.19;72.76;98299.31;5109666;28;20692;-57
2023/03/09 04:17:21;;;;;;;0.70;0.67;;;;;;;9.25;72.61;98292.00;5109490;28;20240;-57
2023/03/09 04:19:48;;;;;;;0.47;0.47;;;;;;;9.31;72.19;98300.91;5109562;28;20571;-57
2023/03/09 04:22:15;;;;;;;0.43;0.40;;;;;;;9.42;72.06;98297.47;5109703;28;20213;-61
2023/03/09 04:24:42;;;;;;;0.80;0.80;;;;;;;9.43;71.29;98294.00;5109707;28;20243;-57
2023/03/09 04:27:08;;;;;;;0.33;0.33;;;;;;;9.44;71.27;98290.50;5109352;28;20220;-57
2023/03/09 04:29:37;;;;;;;0.27;0.27;;;;;;;9.58;70.40;98290.22;5109567;28;20232;-61
2023/03/09 04:32:04;;;;;;;0.40;0.40;;;;;;;9.53;70.47;98289.78;5109412;28;20217;-61
2023/03/09 04:34:31;;;;;;;0.40;0.40;;;;;;;9.44;71.15;98291.31;5109502;28;20201;-57
2023/03/09 04:36:58;;;;;;;0.43;0.43;;;;;;;9.47;70.81;98291.06;5112185;28;20200;-57
2023/03/09 04:39:25;;;;;;;0.40;0.40;;;;;;;9.47;70.81;98292.81;5113598;28;20190;-57
2023/03/09 04:41:51;;;;;;;0.80;0.40;;;;;;;9.56;70.34;98293.81;5113588;28;20208;-57
2023/03/09 04:44:18;;;;;;;0.70;0.60;;;;;;;9.44;70.93;98280.31;5113496;28;20587;-61
2023/03/09 04:46:47;;;;;;;0.60;0.60;;;;;;;9.32;71.18;98283.84;5113573;28;20205;-61
2023/03/09 04:49:13;;;;;;;0.50;0.50;;;;;;;9.36;71.06;98277.56;5113232;28;20220;-61
2023/03/09 04:51:40;;;;;;;0.83;0.57;;;;;;;9.35;71.24;98270.84;5113315;28;20197;-61
2023/03/09 04:54:07;;;;;;;0.40;0.40;;;;;;;9.30;71.44;98266.91;5113184;28;20217;-61
2023/03/09 04:56:34;;;;;;;0.97;0.60;;;;;;;9.35;71.09;98263.19;5113284;28;20201;-62
2023/03/09 04:59:01;;;;;;;0.50;0.50;;;;;;;9.37;71.05;98263.88;5113128;28;20225;-61
2023/03/09 05:01:28;;;;;;;0.97;0.70;;;;;;;9.38;70.89;98260.41;5113114;28;20610;-61
2023/03/09 05:03:56;;;;;;;0.37;0.27;;;;;;;9.38;70.32;98260.41;5113105;28;20213;-58
2023/03/09 05:06:23;;;;;;;0.63;0.50;;;;;;;9.48;70.57;98266.34;5112830;28;20200;-57
2023/03/09 05:08:49;;;;;;;1.43;1.10;;;;;;;9.59;69.70;98258.66;5113089;28;20221;-61
2023/03/09 05:11:16;;;;;;;1.43;0.60;;;;;;;9.63;69.17;98254.94;5113074;28;20197;-61
2023/03/09 05:13:43;;;;;;;0.93;0.90;;;;;;;9.57;70.13;98255.44;5113126;28;20213;-61
2023/03/09 05:16:10;;;;;;;0.40;0.33;;;;;;;9.67;69.02;98261.38;5112947;28;20688;-61
2023/03/09 05:18:37;;;;;;;0.50;0.30;;;;;;;9.65;69.61;98258.16;5112701;28;20623;-62
2023/03/09 05:21:08;;;;;;;0.77;0.67;;;;;;;9.64;69.69;98256.53;5112512;27;20212;-61
2023/03/09 05:23:35;;;;;;;0.60;0.60;;;;;;;9.63;69.87;98249.81;5112680;28;20213;-61
2023/03/09 05:26:06;;;;;;;0.80;0.40;;;;;;;9.67;69.49;98246.06;5112398;28;20202;-61
2023/03/09 05:28:33;;;;;;;0.67;0.40;;;;;;;9.69;69.11;98249.31;5112422;28;20218;-61
2023/03/09 05:31:01;;;;;;;0.73;0.50;;;;;;;9.94;68.55;98247.28;5112903;28;20212;-58
2023/03/09 05:33:28;;;;;;;0.57;0.57;;;;;;;10.31;68.45;98244.25;5112325;28;20353;-57
2023/03/09 05:35:55;;;;;;;0.60;0.60;;;;;;;10.58;66.96;98247.00;5112343;28;20585;-61
2023/03/09 05:38:24;;;;;;;0.93;0.63;;;;;;;10.97;65.70;98247.06;5112258;28;20589;-62
2023/03/09 05:40:51;;;;;;;1.70;0.67;;;;;;;11.27;63.99;98258.09;5112358;28;20205;-58
2023/03/09 05:43:17;;;;;;;0.80;0.57;;;;;;;11.57;63.00;98270.72;5112314;28;20217;-59
2023/03/09 05:45:44;;;;;;;0.47;0.40;;;;;;;11.88;61.61;98275.69;5112246;28;20709;-59
2023/03/09 05:48:11;;;;;;;0.50;0.50;;;;;;;11.96;61.61;98283.47;5111912;28;20306;-64
2023/03/09 05:50:38;;;;;;;0.83;0.70;;;;;;;12.06;60.94;98298.00;5112134;28;20224;-64
2023/03/09 05:53:06;;;;;;;0.73;0.70;;;;;;;12.04;61.19;98292.22;5111806;28;20217;-64
2023/03/09 05:55:34;;;;;;;0.50;0.50;;;;;;;12.04;60.75;98287.88;5111969;28;20205;-64
2023/03/09 05:58:01;;;;;;;1.80;0.60;;;;;;;11.97;61.34;98281.72;5112064;28;20228;-64
2023/03/09 06:00:28;;;;;;;1.40;1.00;;;;;;;11.85;60.14;98283.66;5111866;28;20577;-64
2023/03/09 06:02:54;;;;;;;1.03;0.70;;;;;;;12.07;60.67;98291.94;5111666;28;20213;-58
2023/03/09 06:05:21;;;;;;;0.60;0.60;;;;;;;12.37;60.93;98286.56;5111847;28;20212;-59
2023/03/09 06:07:51;;;;;;;0.60;0.60;;;;;;;12.66;59.54;98288.19;5111666;28;20213;-58
2023/03/09 06:10:18;;;;;;;1.10;1.00;;;;;;;12.79;59.79;98285.25;5111729;28;20224;-64
2023/03/09 06:12:46;;;;;;;0.80;0.73;;;;;;;12.83;59.52;98279.72;5111506;28;20225;-64
2023/03/09 06:15:13;;;;;;;1.63;0.70;;;;;;;13.13;59.33;98291.38;5111744;28;20233;-65
2023/03/09 06:17:40;;;;;;;0.90;0.63;;;;;;;13.23;58.83;98299.00;5111868;28;20228;-64
2023/03/09 06:20:08;;;;;;;0.40;0.40;;;;;;;13.65;57.24;98298.41;5111679;28;20199;-65
2023/03/09 06:22:37;;;;;;;0.57;0.57;;;;;;;13.84;56.75;98294.03;5111821;27;20214;-59
2023/03/09 06:25:04;;;;;;;0.60;0.50;;;;;;;13.90;55.41;98304.50;5111663;28;20203;-59
2023/03/09 06:27:31;;;;;;;1.60;1.20;;;;;;;13.74;56.86;98309.56;5111084;28;20719;-58
2023/03/09 06:29:59;;;;;;;0.57;0.57;;;;;;;13.86;56.77;98315.25;5111219;28;20220;-59
2023/03/09 06:32:26;;;;;;;0.87;0.80;;;;;;;14.21;55.09;98297.13;5111591;28;20227;-65
2023/03/09 06:34:53;;;;;;;0.80;0.80;;;;;;;14.53;55.53;98292.31;5111366;28;20204;-65
2023/03/09 06:37:20;;;;;;;1.60;1.27;;;;;;;15.02;53.75;98282.16;5111507;28;20236;-59
2023/03/09 06:39:47;;;;;;;0.70;0.70;;;;;;;15.56;54.60;98292.78;5111138;28;20201;-59
2023/03/09 06:42:14;;;;;;;0.93;0.90;;;;;;;15.96;51.60;98294.53;5111278;28;20209;-65
2023/03/09 06:44:42;;;;;;;1.00;0.90;;;;;;;16.45;51.05;98302.13;5111154;28;20250;-66
2023/03/09 06:47:11;;;;;;;0.70;0.70;;;;;;;16.51;49.74;98293.72;5111185;28;20720;-66
2023/03/09 06:49:38;;;;;;;0.70;0.70;;;;;;;16.87;49.77;98287.28;5111336;28;20229;-59
2023/03/09 06:52:05;;;;;;;1.73;0.90;;;;;;;16.88;48.77;98294.88;5110814;28;20227;-59
2023/03/09 06:54:32;;;;;;;0.93;0.80;;;;;;;17.50;47.63;98298.31;5110978;27;20213;-59
2023/03/09 06:56:58;;;;;;;1.97;0.90;;;;;;;17.90;48.66;98298.94;5110819;28;20696;-59
2023/03/09 06:59:25;;;;;;;0.90;0.77;;;;;;;18.20;47.67;98295.38;5110265;28;20209;-58
2023/03/09 07:01:52;;;;;;;0.70;0.70;;;;;;;18.56;46.36;98297.25;5110858;28;20205;-59
2023/03/09 07:04:20;;;;;;;1.50;1.03;;;;;;;18.23;45.20;98300.19;5110818;28;20206;-66
2023/03/09 07:06:47;;;;;;;2.23;0.90;;;;;;;18.75;45.05;98296.66;5110514;28;20784;-66
2023/03/09 07:09:14;;;;;;;1.10;0.93;;;;;;;18.51;46.12;98299.56;5110604;28;20209;-66
2023/03/09 07:11:41;;;;;;;0.97;0.90;;;;;;;18.99;46.18;98294.72;5111005;28;20222;-66
2023/03/09 07:14:08;;;;;;;1.00;0.90;;;;;;;19.15;44.14;98293.69;5110910;28;20231;-66
2023/03/09 07:16:35;;;;;;;1.30;0.80;;;;;;;18.96;44.70;98292.50;5110775;28;20193;-65
2023/03/09 07:19:01;;;;;;;1.17;1.00;;;;;;;19.38;44.41;98298.69;5110397;28;20220;-66
2023/03/09 07:21:30;;;;;;;0.73;0.73;;;;;;;19.27;43.48;98289.63;5110390;28;20204;-59
2023/03/09 07:23:57;;;;;;;0.70;0.70;;;;;;;19.87;45.78;98297.91;5110488;28;20217;-59
2023/03/09 07:26:25;;;;;;;1.50;0.93;;;;;;;19.98;44.80;98294.75;5110088;28;20198;-59
2023/03/09 07:28:52;;;;;;;1.03;0.73;;;;;;;18.44;45.74;98296.06;5110273;28;20278;-66
2023/03/09 07:31:20;;;;;;;1.03;0.83;;;;;;;18.10;46.27;98294.84;5110422;28;20238;-66
2023/03/09 07:33:49;;;;;;;0.83;0.80;;;;;;;17.78;46.98;98291.63;5110147;28;20276;-66
2023/03/09 07:36:16;;;;;;;0.70;0.70;;;;;;;17.91;48.41;98290.19;5110430;28;20237;-66
2023/03/09 07:38:44;;;;;;;0.70;0.70;;;;;;;17.87;47.01;98300.91;5110084;28;20215;-59
2023/03/09 07:41:11;;;;;;;0.70;0.70;;;;;;;18.04;47.88;98296.38;5110307;28;20207;-59
2023/03/09 07:43:43;;;;;;;0.90;0.80;;;;;;;18.28;47.46;98297.09;5110018;28;20219;-59
2023/03/09 07:46:11;;;;;;;1.43;0.87;;;;;;;17.97;48.02;98287.69;5110253;28;20299;-66
2023/03/09 07:48:38;;;;;;;0.53;0.53;;;;;;;17.88;47.70;98288.78;5109902;28;20733;-65
2023/03/09 07:51:06;;;;;;;2.00;1.00;;;;;;;18.20;46.88;98285.03;5110031;28;20699;-65
2023/03/09 07:53:34;;;;;;;1.27;0.73;;;;;;;18.39;48.75;98288.06;5109703;28;20224;-66
2023/03/09 07:56:04;;;;;;;0.50;0.50;;;;;;;18.42;48.06;98293.69;5109888;28;20203;-66
2023/03/09 07:58:32;;;;;;;0.93;0.73;;;;;;;18.38;47.17;98286.44;5109731;28;20717;-66
2023/03/09 08:00:58;;;;;;;1.30;1.00;;;;;;;18.35;47.76;98281.63;5109905;28;20198;-66
2023/03/09 08:03:25;;;;;;;1.33;1.03;;;;;;;18.24;48.02;98280.31;5109799;28;20225;-65
2023/03/09 08:05:55;;;;;;;0.97;0.70;;;;;;;18.09;48.21;98278.53;5109673;28;20207;-65
2023/03/09 08:08:22;;;;;;;2.37;1.00;;;;;;;17.95;48.77;98287.09;5109874;28;20225;-65
2023/03/09 08:10:49;;;;;;;2.37;0.90;;;;;;;17.67;47.79;98283.47;5112649;28;20286;-65
2023/03/09 08:13:18;;;;;;;1.13;0.80;;;;;;;17.70;48.13;98277.94;5113982;28;20237;-66
2023/03/09 08:15:45;;;;;;;1.33;0.90;;;;;;;17.74;48.11;98287.72;5113932;28;20193;-66
2023/03/09 08:18:13;;;;;;;0.67;0.67;;;;;;;17.70;48.81;98285.69;5114015;28;20225;-59
2023/03/09 08:20:40;;;;;;;0.83;0.70;;;;;;;17.66;50.13;98280.06;5113943;28;20446;-59
2023/03/09 08:23:07;;;;;;;1.30;0.97;;;;;;;17.95;48.71;98291.44;5114016;28;20584;-59
2023/03/09 08:25:34;;;;;;;1.30;1.00;;;;;;;18.20;49.31;98290.19;5113711;28;20754;-64
2023/03/09 08:28:02;;;;;;;0.97;0.83;;;;;;;18.48;49.90;98298.13;5113587;28;20840;-64
2023/03/09 08:30:31;;;;;;;0.63;0.60;;;;;;;18.47;47.48;98295.72;5113757;28;20316;-64
2023/03/09 08:32:59;;;;;;;1.43;1.03;;;;;;;18.59;48.02;98296.88;5113693;28;20210;-63
2023/03/09 08:35:32;;;;;;;0.70;0.70;;;;;;;18.72;48.34;98294.41;5113772;28;20209;-59
2023/03/09 08:37:59;;;;;;;1.20;0.80;;;;;;;18.53;47.06;98284.66;5113631;28;20646;-59
2023/03/09 08:40:26;;;;;;;1.40;1.00;;;;;;;18.39;48.06;98282.91;5113428;28;20206;-59
2023/03/09 08:42:53;;;;;;;0.80;0.80;;;;;;;18.72;46.89;98289.25;5113449;28;20220;-63
2023/03/09 08:45:20;;;;;;;1.57;0.90;;;;;;;18.75;48.00;98290.69;5113325;28;20197;-63
2023/03/09 08:47:48;;;;;;;0.73;0.63;;;;;;;18.82;46.59;98299.34;5113540;28;20213;-63
2023/03/09 08:50:15;;;;;;;0.93;0.70;;;;;;;18.84;47.78;98291.38;5113467;28;20226;-63
2023/03/09 08:52:42;;;;;;;0.87;0.80;;;;;;;18.78;47.43;98292.91;5113207;28;20218;-63
2023/03/09 08:55:11;;;;;;;1.07;0.70;;;;;;;18.73;47.31;98290.91;5113292;28;20196;-63
2023/03/09 08:57:38;;;;;;;0.90;0.80;;;;;;;18.22;48.76;98296.00;5113153;28;20274;-59
2023/03/09 09:00:08;;;;;;;0.70;0.70;;;;;;;18.45;49.14;98292.53;5113102;28;20205;-59
2023/03/09 09:02:35;;;;;;;0.70;0.60;;;;;;;18.87;47.85;98303.97;5113232;28;20257;-59
2023/03/09 09:05:03;;;;;;;0.97;0.80;;;;;;;19.00;48.30;98291.16;5112986;28;20190;-59
2023/03/09 09:07:30;;;;;;;1.30;0.97;;;;;;;19.10;47.54;98302.00;5112800;28;20221;-60
2023/03/09 09:09:58;;;;;;;0.60;0.60;;;;;;;18.78;48.08;98288.53;5112936;28;20193;-63
2023/03/09 09:12:27;;;;;;;0.60;0.60;;;;;;;19.09;48.74;98287.47;5112886;28;20944;-63
2023/03/09 09:14:54;;;;;;;2.07;0.97;;;;;;;18.99;48.02;98281.78;5112884;28;20259;-63
2023/03/09 09:17:21;;;;;;;0.83;0.73;;;;;;;19.04;47.19;98276.84;5113201;28;20222;-63
2023/03/09 09:19:48;;;;;;;0.73;0.70;;;;;;;19.42;46.61;98271.41;5112777;28;20220;-63
2023/03/09 09:22:17;;;;;;;0.53;0.53;;;;;;;19.72;46.42;98258.28;5112114;28;20649;-59
2023/03/09 09:24:44;;;;;;;0.90;0.70;;;;;;;20.11;44.87;98266.28;5112731;28;20293;-59
2023/03/09 09:27:11;;;;;;;0.70;0.63;;;;;;;20.39;44.88;98265.44;5112358;28;20234;-63
2023/03/09 09:29:38;;;;;;;0.53;0.53;;;;;;;20.88;44.42;98258.38;5112677;28;20191;-64
2023/03/09 09:32:06;;;;;;;0.70;0.60;;;;;;;21.35;43.92;98254.84;5112448;28;20234;-59
2023/03/09 09:34:34;;;;;;;0.60;0.60;;;;;;;22.04;43.18;98252.75;5112720;28;20201;-59
2023/03/09 09:37:03;;;;;;;0.70;0.70;;;;;;;21.76;41.90;98250.41;5112429;28;20669;-59
2023/03/09 09:39:32;;;;;;;0.67;0.67;;;;;;;21.98;41.70;98250.97;5112572;28;20217;-63
2023/03/09 09:42:02;;;;;;;0.90;0.70;;;;;;;21.68;42.02;98243.63;5112469;28;20205;-63
2023/03/09 09:44:33;;;;;;;1.37;1.10;;;;;;;22.09;41.93;98242.53;5112291;28;20683;-59
2023/03/09 09:47:04;;;;;;;0.87;0.80;;;;;;;22.03;40.74;98240.75;5112547;28;20684;-60
2023/03/09 09:49:43;;;;;;;0.87;0.60;;;;;;;21.47;40.60;98242.88;5112265;28;20201;-62
2023/03/09 09:52:22;;;;;;;0.80;0.60;;;;;;;21.01;42.02;98232.44;5112042;28;20323;-59
2023/03/09 09:54:57;;;;;;;0.73;0.57;;;;;;;20.95;43.60;98238.44;5112278;28;20210;-59
2023/03/09 09:57:31;;;;;;;1.00;0.70;;;;;;;20.88;41.93;98242.78;5112098;28;20218;-63
2023/03/09 10:00:03;;;;;;;0.77;0.77;;;;;;;20.61;42.93;98231.56;5111991;28;20197;-63
2023/03/09 10:02:43;;;;;;;1.43;0.70;;;;;;;20.97;42.86;98226.84;5111918;28;20229;-59
2023/03/09 10:05:18;;;;;;;4.60;1.00;;;;;;;21.06;42.86;98221.44;5111985;28;20200;-59
2023/03/09 10:07:45;;;;;;;0.87;0.77;;;;;;;20.87;42.05;98213.44;5111776;28;20224;-60
2023/03/09 10:10:20;;;;;;;0.73;0.73;;;;;;;20.70;43.72;98214.78;5111795;28;20193;-60
2023/03/09 10:12:47;;;;;;;0.80;0.60;;;;;;;20.56;43.06;98212.16;5111771;28;20219;-59
2023/03/09 10:15:22;;;;;;;0.80;0.60;;;;;;;20.40;42.80;98209.91;5111912;28;20218;-63
2023/03/09 10:17:55;;;;;;;0.50;0.50;;;;;;;20.40;42.86;98204.72;5111685;28;20228;-63
2023/03/09 10:20:28;;;;;;;0.80;0.70;;;;;;;20.34;43.85;98208.09;5111643;28;20267;-63
2023/03/09 10:22:57;;;;;;;0.60;0.60;;;;;;;20.49;41.51;98211.31;5111909;28;20215;-63
2023/03/09 10:25:29;;;;;;;0.97;0.80;;;;;;;20.34;42.46;98201.09;5111500;28;20207;-63
2023/03/09 10:28:03;;;;;;;0.87;0.70;;;;;;;20.41;42.73;98201.09;5111372;28;20229;-64
2023/03/09 10:30:39;;;;;;;0.93;0.70;;;;;;;19.90;43.11;98204.13;5111208;28;20228;-63
2023/03/09 10:33:15;;;;;;;1.40;0.60;;;;;;;20.23;43.31;98195.66;5110520;28;20712;-63
2023/03/09 10:35:45;;;;;;;1.00;0.70;;;;;;;20.44;42.17;98190.34;5111259;28;20207;-63
2023/03/09 10:38:16;;;;;;;1.30;0.77;;;;;;;20.54;43.28;98180.41;5111250;28;20220;-63
2023/03/09 10:40:47;;;;;;;1.60;0.83;;;;;;;20.75;43.16;98173.44;5111291;28;20202;-60
2023/03/09 10:43:21;;;;;;;1.03;0.70;;;;;;;20.71;41.36;98172.22;5111156;28;20650;-60
2023/03/09 10:45:48;;;;;;;0.73;0.73;;;;;;;20.72;40.28;98171.25;5111271;28;20672;-63
2023/03/09 10:48:26;;;;;;;1.43;0.80;;;;;;;21.02;39.53;98167.25;5111168;28;20448;-63
2023/03/09 10:50:58;;;;;;;0.87;0.60;;;;;;;20.81;42.38;98162.25;5110945;28;20229;-64
2023/03/09 10:53:31;;;;;;;0.93;0.63;;;;;;;21.07;41.27;98158.06;5110916;28;20218;-59
2023/03/09 10:56:05;;;;;;;1.83;0.90;;;;;;;21.58;41.84;98158.19;5110928;28;20202;-60
2023/03/09 10:58:33;;;;;;;0.60;0.60;;;;;;;22.44;40.29;98138.84;5110869;28;20223;-63
2023/03/09 11:01:03;;;;;;;0.53;0.50;;;;;;;21.76;39.44;98128.94;5110864;28;20293;-64
2023/03/09 11:03:35;;;;;;;1.07;0.80;;;;;;;22.20;40.92;98132.56;5110768;28;20264;-60
2023/03/09 11:06:28;;;;;;;2.07;1.20;;;;;;;22.69;38.20;98115.41;5110491;28;20614;-59
2023/03/09 11:08:58;;;;;;;0.93;0.60;;;;;;;22.96;38.34;98121.22;5107940;28;20225;-63
2023/03/09 11:11:28;;;;;;;1.08;0.70;;;;;;;23.30;39.36;98115.69;5110895;28;20229;-63
2023/03/09 11:13:56;;;;;;;0.68;0.68;;;;;;;23.95;37.33;98115.97;5110428;28;20630;-60
2023/03/09 11:16:25;;;;;;;0.65;0.50;;;;;;;24.25;37.03;98117.78;5110866;28;20231;-60
2023/03/09 11:19:12;;;;;;;0.65;0.65;;;;;;;23.42;39.50;98111.38;5110529;28;20225;-60
2023/03/09 11:21:42;;;;;;;1.00;0.70;;;;;;;23.27;38.18;98106.47;5110842;28;20279;-60
2023/03/09 11:24:12;;;;;;;0.60;0.60;;;;;;;23.61;39.35;98107.72;5110651;28;20558;-60
2023/03/09 11:26:47;;;;;;;0.68;0.68;;;;;;;24.11;37.36;98107.50;5110591;28;20458;-64
2023/03/09 11:29:22;;;;;;;0.70;0.68;;;;;;;23.63;35.89;98100.47;5110590;28;20200;-64
2023/03/09 11:31:49;;;;;;;1.08;0.55;;;;;;;23.94;37.53;98096.13;5110168;28;20228;-64
2023/03/09 11:34:21;;;;;;;1.13;0.80;;;;;;;23.97;36.77;98089.63;5110204;28;20255;-64
2023/03/09 11:36:53;;;;;;;0.65;0.60;;;;;;;24.58;36.85;98086.75;5110285;28;20662;-64
2023/03/09 11:39:25;;;;;;;1.13;0.80;;;;;;;24.33;36.36;98086.13;5110147;28;20201;-64
2023/03/09 11:41:57;;;;;;;0.55;0.55;;;;;;;24.23;36.53;98097.13;5110186;28;20282;-63
2023/03/09 11:44:31;;;;;;;0.70;0.70;;;;;;;24.23;36.83;98098.91;5109974;28;20201;-64